Stumpy Point, North Carolina
Current Conditions -  °F | °C
As of 10:56 PM on Saturday 24 Jan 2015 (Local Time) from K2DP Reporting Station
Clear Clear  
Wind Chill: 35°   Ceiling: Unl
Heat Index: 41°   Visibility: 10mi
Dew Point: 37°   Wind: 8mph
Humidity: 88%   Direction: 270°W
Pressure: 29.77"   Gusts: NA
Location:  35.7°N, 75.74°W
Report Text: K2DP 250356Z AUTO 27007KT 10SM CLR 05/03 A2977 RMK AO2 SLPNO T00480029
Loading
Personal Weather Stations






























Interactive Weather Map New forecast layout! Learn more

10-Day Weather Forecast

Advertisements
Track Severe Weather on mobile